Airfield :
LOGIN :

Register | Disclaimer

   EN    FR    IT 

 










Legend :    VFR   Marginal VFR   IFR   Intensive IFR   Very Intensive IFR
Visi :
Ceiling :
>= 8 km
>= 3000ft
5 to 8 km
1000 to 3000 ft
1500m to 5 km
500 to 1000 ft
800 to 1500m
200 to 500 ft
< 800m
< 200 ft
Symbols :   Thunderstorms  Fog  Heavy snow  Heavy precipitations  Wind > 20 kt
SIGMETs :     Misc.  Thunderstorms  Icing  Turbulence  Mountain Waves  Volcanic Ashes






- Airport Elevation : 650 ft
- IATA code : ZJI


LSZL - Locarno

CURRENT METAR :
  • 170320Z AUTO VRB01KT 2700NDV BR FEW002 BKN005 BKN008 10/10 Q1005 RMK

EXPIRED METARs :
  • 170250Z AUTO 16002KT 0550NDV R08/0500V0800D R26/0700V0900D FG FEW002 10/10 Q1004 RMK
  • 170220Z AUTO 00000KT 2300NDV BR SCT017 11/11 Q1004 RMK
  • 170150Z AUTO 00000KT 9999NDV FEW017 SCT027 BKN033 12/12 Q1004 RMK
  • 170120Z AUTO 00000KT 9999NDV BKN017 BKN031 12/12 Q1004 RMK
  • 170050Z AUTO 00000KT 9999NDV FEW013 BKN032 12/12 Q1004 RMK

TAF TAF LSZL
Valid from the 17 at 03:00 until the 17 at 12:00 UTC


170225Z 1703/1712 VRB02KT 9999 BKN030
PROB40 1706/1712 SCT030
BECMG 1709/1712 07010KT



MET'MAP, your aeronautical weather chart ! - Copyright ORBIFLY December 2007 - Disclaimer

ORBIFLY MET'MAP TEAM :

Programming & Development : Alexandra Zaïnal
Concept & original design : Baudouin d'Aumeries
Assistance for programming : Marc-Olivier Méhu
Technical & hardware support : Manuel Goepfert

Contact : metmap@orbifly.com




SOURCES & CREDITS :

   NOAA